sensor_id;sensor_type;location;lat;lon;timestamp;P1;durP1;ratioP1;P2;durP2;ratioP2
11135;SDS011;5622;50.840;4.948;2023-07-31T00:02:03;7.30;;;4.00;;
11135;SDS011;5622;50.840;4.948;2023-07-31T00:04:30;9.87;;;4.70;;
11135;SDS011;5622;50.840;4.948;2023-07-31T00:06:58;14.30;;;5.33;;
11135;SDS011;5622;50.840;4.948;2023-07-31T00:09:26;15.97;;;5.17;;
11135;SDS011;5622;50.840;4.948;2023-07-31T00:11:53;11.50;;;4.73;;
11135;SDS011;5622;50.840;4.948;2023-07-31T00:14:20;11.80;;;4.63;;
11135;SDS011;5622;50.840;4.948;2023-07-31T00:16:47;11.60;;;4.63;;
11135;SDS011;5622;50.840;4.948;2023-07-31T00:19:14;8.57;;;4.37;;
11135;SDS011;5622;50.840;4.948;2023-07-31T00:21:41;13.47;;;4.97;;
11135;SDS011;5622;50.840;4.948;2023-07-31T00:24:10;10.17;;;4.43;;
11135;SDS011;5622;50.840;4.948;2023-07-31T00:26:38;8.13;;;4.13;;
11135;SDS011;5622;50.840;4.948;2023-07-31T00:29:05;8.20;;;4.37;;
11135;SDS011;5622;50.840;4.948;2023-07-31T00:31:33;16.47;;;5.03;;
11135;SDS011;5622;50.840;4.948;2023-07-31T00:34:00;14.57;;;5.27;;
11135;SDS011;5622;50.840;4.948;2023-07-31T00:36:27;13.50;;;5.00;;
11135;SDS011;5622;50.840;4.948;2023-07-31T00:38:54;9.73;;;4.83;;
11135;SDS011;5622;50.840;4.948;2023-07-31T00:41:21;12.37;;;4.53;;
11135;SDS011;5622;50.840;4.948;2023-07-31T00:43:49;14.60;;;5.37;;
11135;SDS011;5622;50.840;4.948;2023-07-31T00:46:16;9.83;;;4.37;;
11135;SDS011;5622;50.840;4.948;2023-07-31T00:48:43;10.00;;;4.30;;
11135;SDS011;5622;50.840;4.948;2023-07-31T00:51:11;12.07;;;5.03;;
11135;SDS011;5622;50.840;4.948;2023-07-31T00:53:38;9.37;;;4.60;;
11135;SDS011;5622;50.840;4.948;2023-07-31T00:56:06;13.70;;;4.63;;
11135;SDS011;5622;50.840;4.948;2023-07-31T00:58:34;8.47;;;4.67;;
11135;SDS011;5622;50.840;4.948;2023-07-31T01:01:02;9.93;;;4.47;;
11135;SDS011;5622;50.840;4.948;2023-07-31T01:03:29;9.23;;;4.60;;
11135;SDS011;5622;50.840;4.948;2023-07-31T01:05:59;14.17;;;4.80;;
11135;SDS011;5622;50.840;4.948;2023-07-31T01:08:36;5.50;;;3.83;;
11135;SDS011;5622;50.840;4.948;2023-07-31T01:11:09;8.40;;;4.43;;
11135;SDS011;5622;50.840;4.948;2023-07-31T01:13:42;12.53;;;5.30;;
11135;SDS011;5622;50.840;4.948;2023-07-31T01:16:12;9.67;;;4.53;;
11135;SDS011;5622;50.840;4.948;2023-07-31T01:18:39;11.57;;;5.30;;
11135;SDS011;5622;50.840;4.948;2023-07-31T01:21:08;8.43;;;4.50;;
11135;SDS011;5622;50.840;4.948;2023-07-31T01:24:02;8.37;;;4.97;;
11135;SDS011;5622;50.840;4.948;2023-07-31T01:26:47;11.50;;;4.40;;
11135;SDS011;5622;50.840;4.948;2023-07-31T01:29:20;12.63;;;4.47;;
11135;SDS011;5622;50.840;4.948;2023-07-31T01:31:55;11.63;;;4.87;;
11135;SDS011;5622;50.840;4.948;2023-07-31T01:34:27;10.07;;;4.90;;
11135;SDS011;5622;50.840;4.948;2023-07-31T01:36:55;14.50;;;5.60;;
11135;SDS011;5622;50.840;4.948;2023-07-31T01:39:23;9.20;;;5.13;;
11135;SDS011;5622;50.840;4.948;2023-07-31T01:41:51;9.63;;;5.43;;
11135;SDS011;5622;50.840;4.948;2023-07-31T01:44:19;10.87;;;5.03;;
11135;SDS011;5622;50.840;4.948;2023-07-31T01:46:46;13.83;;;5.10;;
11135;SDS011;5622;50.840;4.948;2023-07-31T01:49:13;14.23;;;5.10;;
11135;SDS011;5622;50.840;4.948;2023-07-31T01:51:40;10.47;;;4.77;;
11135;SDS011;5622;50.840;4.948;2023-07-31T01:54:07;10.93;;;5.67;;
11135;SDS011;5622;50.840;4.948;2023-07-31T01:56:34;10.37;;;5.13;;
11135;SDS011;5622;50.840;4.948;2023-07-31T01:59:02;10.43;;;4.87;;
11135;SDS011;5622;50.840;4.948;2023-07-31T02:01:29;13.53;;;5.30;;
11135;SDS011;5622;50.840;4.948;2023-07-31T02:03:56;8.03;;;4.33;;
11135;SDS011;5622;50.840;4.948;2023-07-31T02:06:24;9.17;;;5.10;;
11135;SDS011;5622;50.840;4.948;2023-07-31T02:08:51;6.53;;;4.40;;
11135;SDS011;5622;50.840;4.948;2023-07-31T02:11:18;10.03;;;5.17;;
11135;SDS011;5622;50.840;4.948;2023-07-31T02:13:45;13.90;;;5.13;;
11135;SDS011;5622;50.840;4.948;2023-07-31T02:16:13;7.70;;;4.53;;
11135;SDS011;5622;50.840;4.948;2023-07-31T02:18:40;8.87;;;5.03;;
11135;SDS011;5622;50.840;4.948;2023-07-31T02:21:07;8.43;;;4.70;;
11135;SDS011;5622;50.840;4.948;2023-07-31T02:23:34;13.27;;;4.97;;
11135;SDS011;5622;50.840;4.948;2023-07-31T02:26:01;10.60;;;4.90;;
11135;SDS011;5622;50.840;4.948;2023-07-31T02:28:28;7.53;;;4.87;;
11135;SDS011;5622;50.840;4.948;2023-07-31T02:30:56;10.40;;;5.20;;
11135;SDS011;5622;50.840;4.948;2023-07-31T02:33:25;10.97;;;4.90;;
11135;SDS011;5622;50.840;4.948;2023-07-31T02:35:52;10.20;;;5.10;;
11135;SDS011;5622;50.840;4.948;2023-07-31T02:38:19;8.83;;;4.73;;
11135;SDS011;5622;50.840;4.948;2023-07-31T02:40:46;6.80;;;4.17;;
11135;SDS011;5622;50.840;4.948;2023-07-31T02:43:13;7.60;;;5.07;;
11135;SDS011;5622;50.840;4.948;2023-07-31T02:45:40;9.00;;;4.93;;
11135;SDS011;5622;50.840;4.948;2023-07-31T02:48:07;9.73;;;5.20;;
11135;SDS011;5622;50.840;4.948;2023-07-31T02:50:35;12.30;;;5.47;;
11135;SDS011;5622;50.840;4.948;2023-07-31T02:53:03;10.83;;;4.77;;
11135;SDS011;5622;50.840;4.948;2023-07-31T02:55:30;7.60;;;4.97;;
11135;SDS011;5622;50.840;4.948;2023-07-31T02:57:57;10.43;;;5.00;;
11135;SDS011;5622;50.840;4.948;2023-07-31T03:00:24;8.97;;;5.00;;
11135;SDS011;5622;50.840;4.948;2023-07-31T03:02:51;7.37;;;4.73;;
11135;SDS011;5622;50.840;4.948;2023-07-31T03:05:18;7.93;;;4.90;;
11135;SDS011;5622;50.840;4.948;2023-07-31T03:07:47;6.60;;;4.67;;
11135;SDS011;5622;50.840;4.948;2023-07-31T03:10:14;11.07;;;4.40;;
11135;SDS011;5622;50.840;4.948;2023-07-31T03:12:41;6.63;;;4.10;;
11135;SDS011;5622;50.840;4.948;2023-07-31T03:15:08;8.07;;;4.47;;
11135;SDS011;5622;50.840;4.948;2023-07-31T03:17:36;7.00;;;4.37;;
11135;SDS011;5622;50.840;4.948;2023-07-31T03:20:03;8.77;;;4.40;;
11135;SDS011;5622;50.840;4.948;2023-07-31T03:22:31;6.40;;;4.20;;
11135;SDS011;5622;50.840;4.948;2023-07-31T03:25:01;5.87;;;4.40;;
11135;SDS011;5622;50.840;4.948;2023-07-31T03:27:28;7.97;;;4.30;;
11135;SDS011;5622;50.840;4.948;2023-07-31T03:29:55;7.97;;;4.57;;
11135;SDS011;5622;50.840;4.948;2023-07-31T03:32:22;8.80;;;4.43;;
11135;SDS011;5622;50.840;4.948;2023-07-31T03:34:49;12.40;;;4.63;;
11135;SDS011;5622;50.840;4.948;2023-07-31T03:37:17;8.47;;;4.13;;
11135;SDS011;5622;50.840;4.948;2023-07-31T03:39:43;7.20;;;4.33;;
11135;SDS011;5622;50.840;4.948;2023-07-31T03:42:12;9.47;;;4.37;;
11135;SDS011;5622;50.840;4.948;2023-07-31T03:44:39;8.80;;;4.20;;
11135;SDS011;5622;50.840;4.948;2023-07-31T03:47:06;7.43;;;4.17;;
11135;SDS011;5622;50.840;4.948;2023-07-31T03:49:34;5.50;;;3.80;;
11135;SDS011;5622;50.840;4.948;2023-07-31T03:52:01;8.20;;;4.30;;
11135;SDS011;5622;50.840;4.948;2023-07-31T03:54:28;6.43;;;3.70;;
11135;SDS011;5622;50.840;4.948;2023-07-31T03:56:55;6.30;;;4.00;;
11135;SDS011;5622;50.840;4.948;2023-07-31T03:59:23;6.43;;;4.10;;
11135;SDS011;5622;50.840;4.948;2023-07-31T04:01:50;6.40;;;3.97;;
11135;SDS011;5622;50.840;4.948;2023-07-31T04:04:17;7.47;;;4.17;;
11135;SDS011;5622;50.840;4.948;2023-07-31T04:06:44;6.00;;;4.00;;
11135;SDS011;5622;50.840;4.948;2023-07-31T04:09:11;9.23;;;4.43;;
11135;SDS011;5622;50.840;4.948;2023-07-31T04:11:38;6.80;;;3.77;;
11135;SDS011;5622;50.840;4.948;2023-07-31T04:14:05;8.27;;;3.80;;
11135;SDS011;5622;50.840;4.948;2023-07-31T04:16:34;6.40;;;3.90;;
11135;SDS011;5622;50.840;4.948;2023-07-31T04:19:01;6.53;;;4.20;;
11135;SDS011;5622;50.840;4.948;2023-07-31T04:21:29;6.50;;;4.30;;
11135;SDS011;5622;50.840;4.948;2023-07-31T04:23:57;6.87;;;4.83;;
11135;SDS011;5622;50.840;4.948;2023-07-31T04:26:24;7.10;;;4.57;;
11135;SDS011;5622;50.840;4.948;2023-07-31T04:28:51;11.70;;;4.27;;
11135;SDS011;5622;50.840;4.948;2023-07-31T04:31:18;6.30;;;4.10;;
11135;SDS011;5622;50.840;4.948;2023-07-31T04:33:46;6.23;;;4.27;;
11135;SDS011;5622;50.840;4.948;2023-07-31T04:36:13;7.20;;;4.37;;
11135;SDS011;5622;50.840;4.948;2023-07-31T04:38:40;6.23;;;4.30;;
11135;SDS011;5622;50.840;4.948;2023-07-31T04:41:07;8.63;;;4.30;;
11135;SDS011;5622;50.840;4.948;2023-07-31T04:43:34;9.70;;;3.97;;
11135;SDS011;5622;50.840;4.948;2023-07-31T04:46:04;6.63;;;4.00;;
11135;SDS011;5622;50.840;4.948;2023-07-31T04:48:31;6.50;;;3.60;;
11135;SDS011;5622;50.840;4.948;2023-07-31T04:50:59;6.87;;;4.60;;
11135;SDS011;5622;50.840;4.948;2023-07-31T04:53:27;7.30;;;3.90;;
11135;SDS011;5622;50.840;4.948;2023-07-31T04:55:54;7.67;;;3.97;;
11135;SDS011;5622;50.840;4.948;2023-07-31T04:58:22;7.10;;;4.13;;
11135;SDS011;5622;50.840;4.948;2023-07-31T05:00:49;5.83;;;3.63;;
11135;SDS011;5622;50.840;4.948;2023-07-31T05:03:17;6.73;;;4.00;;
11135;SDS011;5622;50.840;4.948;2023-07-31T05:05:44;9.27;;;4.20;;
11135;SDS011;5622;50.840;4.948;2023-07-31T05:08:12;8.13;;;4.27;;
11135;SDS011;5622;50.840;4.948;2023-07-31T05:10:39;8.70;;;4.20;;
11135;SDS011;5622;50.840;4.948;2023-07-31T05:13:06;11.27;;;5.93;;
11135;SDS011;5622;50.840;4.948;2023-07-31T05:15:33;8.73;;;4.93;;
11135;SDS011;5622;50.840;4.948;2023-07-31T05:18:00;8.07;;;4.10;;
11135;SDS011;5622;50.840;4.948;2023-07-31T05:20:27;12.20;;;4.07;;
11135;SDS011;5622;50.840;4.948;2023-07-31T05:22:54;10.70;;;4.00;;
11135;SDS011;5622;50.840;4.948;2023-07-31T05:25:23;6.03;;;4.10;;
11135;SDS011;5622;50.840;4.948;2023-07-31T05:27:50;5.90;;;4.10;;
11135;SDS011;5622;50.840;4.948;2023-07-31T05:30:17;6.57;;;4.13;;
11135;SDS011;5622;50.840;4.948;2023-07-31T05:32:46;5.67;;;3.77;;
11135;SDS011;5622;50.840;4.948;2023-07-31T05:35:13;7.53;;;4.40;;
11135;SDS011;5622;50.840;4.948;2023-07-31T05:37:40;9.47;;;4.00;;
11135;SDS011;5622;50.840;4.948;2023-07-31T05:40:07;7.10;;;4.17;;
11135;SDS011;5622;50.840;4.948;2023-07-31T05:42:36;6.97;;;4.17;;
11135;SDS011;5622;50.840;4.948;2023-07-31T05:45:04;6.63;;;4.17;;
11135;SDS011;5622;50.840;4.948;2023-07-31T05:47:32;8.37;;;4.00;;
11135;SDS011;5622;50.840;4.948;2023-07-31T05:49:59;9.37;;;4.00;;
11135;SDS011;5622;50.840;4.948;2023-07-31T05:52:26;7.87;;;4.07;;
11135;SDS011;5622;50.840;4.948;2023-07-31T05:54:54;7.00;;;4.10;;
11135;SDS011;5622;50.840;4.948;2023-07-31T05:57:21;10.27;;;3.70;;
11135;SDS011;5622;50.840;4.948;2023-07-31T05:59:50;6.03;;;3.53;;
11135;SDS011;5622;50.840;4.948;2023-07-31T06:02:18;5.63;;;3.83;;
11135;SDS011;5622;50.840;4.948;2023-07-31T06:04:45;4.87;;;3.60;;
11135;SDS011;5622;50.840;4.948;2023-07-31T06:07:12;6.53;;;3.80;;
11135;SDS011;5622;50.840;4.948;2023-07-31T06:09:39;6.20;;;3.50;;
11135;SDS011;5622;50.840;4.948;2023-07-31T06:12:06;7.33;;;3.73;;
11135;SDS011;5622;50.840;4.948;2023-07-31T06:14:34;9.37;;;4.10;;
11135;SDS011;5622;50.840;4.948;2023-07-31T06:17:02;9.27;;;4.27;;
11135;SDS011;5622;50.840;4.948;2023-07-31T06:19:30;6.67;;;3.93;;
11135;SDS011;5622;50.840;4.948;2023-07-31T06:21:57;8.67;;;4.03;;
11135;SDS011;5622;50.840;4.948;2023-07-31T06:24:24;6.40;;;3.60;;
11135;SDS011;5622;50.840;4.948;2023-07-31T06:26:51;7.03;;;3.90;;
11135;SDS011;5622;50.840;4.948;2023-07-31T06:29:18;8.67;;;3.60;;
11135;SDS011;5622;50.840;4.948;2023-07-31T06:31:45;6.73;;;3.73;;
11135;SDS011;5622;50.840;4.948;2023-07-31T06:34:14;7.17;;;3.70;;
11135;SDS011;5622;50.840;4.948;2023-07-31T06:36:41;6.27;;;4.03;;
11135;SDS011;5622;50.840;4.948;2023-07-31T06:39:08;6.67;;;4.10;;
11135;SDS011;5622;50.840;4.948;2023-07-31T06:41:35;5.70;;;3.60;;
11135;SDS011;5622;50.840;4.948;2023-07-31T06:44:02;9.70;;;4.10;;
11135;SDS011;5622;50.840;4.948;2023-07-31T06:46:29;6.73;;;4.07;;
11135;SDS011;5622;50.840;4.948;2023-07-31T06:48:56;6.90;;;3.67;;
11135;SDS011;5622;50.840;4.948;2023-07-31T06:51:25;6.83;;;3.90;;
11135;SDS011;5622;50.840;4.948;2023-07-31T06:53:52;6.13;;;3.60;;
11135;SDS011;5622;50.840;4.948;2023-07-31T06:56:20;10.53;;;3.60;;
11135;SDS011;5622;50.840;4.948;2023-07-31T06:58:47;8.33;;;4.40;;
11135;SDS011;5622;50.840;4.948;2023-07-31T07:01:14;7.37;;;3.50;;
11135;SDS011;5622;50.840;4.948;2023-07-31T07:03:41;8.23;;;3.80;;
11135;SDS011;5622;50.840;4.948;2023-07-31T07:06:08;5.90;;;3.87;;
11135;SDS011;5622;50.840;4.948;2023-07-31T07:08:37;5.00;;;3.43;;
11135;SDS011;5622;50.840;4.948;2023-07-31T07:11:04;7.33;;;3.70;;
11135;SDS011;5622;50.840;4.948;2023-07-31T07:13:31;4.53;;;3.40;;
11135;SDS011;5622;50.840;4.948;2023-07-31T07:15:58;7.20;;;3.67;;
11135;SDS011;5622;50.840;4.948;2023-07-31T07:18:25;9.43;;;3.80;;
11135;SDS011;5622;50.840;4.948;2023-07-31T07:20:53;10.60;;;3.73;;
11135;SDS011;5622;50.840;4.948;2023-07-31T07:23:22;9.00;;;3.40;;
11135;SDS011;5622;50.840;4.948;2023-07-31T07:25:50;5.83;;;3.50;;
11135;SDS011;5622;50.840;4.948;2023-07-31T07:28:18;6.77;;;3.90;;
11135;SDS011;5622;50.840;4.948;2023-07-31T07:30:45;6.80;;;3.63;;
11135;SDS011;5622;50.840;4.948;2023-07-31T07:33:16;6.33;;;4.23;;
11135;SDS011;5622;50.840;4.948;2023-07-31T07:35:43;6.43;;;3.57;;
11135;SDS011;5622;50.840;4.948;2023-07-31T07:38:10;5.93;;;4.00;;
11135;SDS011;5622;50.840;4.948;2023-07-31T07:40:38;8.70;;;3.50;;
11135;SDS011;5622;50.840;4.948;2023-07-31T07:43:07;5.90;;;3.60;;
11135;SDS011;5622;50.840;4.948;2023-07-31T07:45:34;5.87;;;3.50;;
11135;SDS011;5622;50.840;4.948;2023-07-31T07:48:01;4.93;;;3.17;;
11135;SDS011;5622;50.840;4.948;2023-07-31T07:50:28;8.27;;;3.50;;
11135;SDS011;5622;50.840;4.948;2023-07-31T07:52:55;5.97;;;3.37;;
11135;SDS011;5622;50.840;4.948;2023-07-31T07:55:22;6.40;;;3.30;;
11135;SDS011;5622;50.840;4.948;2023-07-31T07:57:49;7.07;;;3.87;;
11135;SDS011;5622;50.840;4.948;2023-07-31T08:00:18;7.73;;;3.50;;
11135;SDS011;5622;50.840;4.948;2023-07-31T08:02:45;6.77;;;3.63;;
11135;SDS011;5622;50.840;4.948;2023-07-31T08:05:12;6.03;;;3.40;;
11135;SDS011;5622;50.840;4.948;2023-07-31T08:07:39;5.87;;;3.47;;
11135;SDS011;5622;50.840;4.948;2023-07-31T08:10:06;7.10;;;3.67;;
11135;SDS011;5622;50.840;4.948;2023-07-31T08:12:34;7.47;;;3.80;;
11135;SDS011;5622;50.840;4.948;2023-07-31T08:15:01;6.13;;;3.60;;
11135;SDS011;5622;50.840;4.948;2023-07-31T08:17:29;9.70;;;3.50;;
11135;SDS011;5622;50.840;4.948;2023-07-31T08:19:56;6.13;;;3.70;;
11135;SDS011;5622;50.840;4.948;2023-07-31T08:22:24;6.03;;;3.53;;
11135;SDS011;5622;50.840;4.948;2023-07-31T08:24:51;8.17;;;3.30;;
11135;SDS011;5622;50.840;4.948;2023-07-31T08:27:18;5.40;;;3.53;;
11135;SDS011;5622;50.840;4.948;2023-07-31T08:29:45;7.87;;;3.83;;
11135;SDS011;5622;50.840;4.948;2023-07-31T08:32:12;6.83;;;3.67;;
11135;SDS011;5622;50.840;4.948;2023-07-31T08:34:41;9.50;;;4.03;;
11135;SDS011;5622;50.840;4.948;2023-07-31T08:37:08;7.70;;;3.90;;
11135;SDS011;5622;50.840;4.948;2023-07-31T08:39:36;6.03;;;3.77;;
11135;SDS011;5622;50.840;4.948;2023-07-31T08:42:07;6.17;;;3.60;;
11135;SDS011;5622;50.840;4.948;2023-07-31T08:44:34;8.70;;;3.80;;
11135;SDS011;5622;50.840;4.948;2023-07-31T08:47:01;8.60;;;3.37;;
11135;SDS011;5622;50.840;4.948;2023-07-31T08:49:29;6.23;;;3.43;;
11135;SDS011;5622;50.840;4.948;2023-07-31T08:51:59;6.90;;;3.60;;
11135;SDS011;5622;50.840;4.948;2023-07-31T08:54:26;7.77;;;3.90;;
11135;SDS011;5622;50.840;4.948;2023-07-31T08:56:56;3.93;;;2.90;;
11135;SDS011;5622;50.840;4.948;2023-07-31T08:59:24;5.30;;;3.50;;
11135;SDS011;5622;50.840;4.948;2023-07-31T09:01:55;5.33;;;3.27;;
11135;SDS011;5622;50.840;4.948;2023-07-31T09:04:23;4.83;;;3.00;;
11135;SDS011;5622;50.840;4.948;2023-07-31T09:06:53;5.97;;;3.10;;
11135;SDS011;5622;50.840;4.948;2023-07-31T09:09:26;4.77;;;2.60;;
11135;SDS011;5622;50.840;4.948;2023-07-31T09:11:53;5.70;;;3.10;;
11135;SDS011;5622;50.840;4.948;2023-07-31T09:14:22;5.93;;;2.73;;
11135;SDS011;5622;50.840;4.948;2023-07-31T09:16:52;4.33;;;2.57;;
11135;SDS011;5622;50.840;4.948;2023-07-31T09:19:26;5.07;;;2.87;;
11135;SDS011;5622;50.840;4.948;2023-07-31T09:21:54;3.07;;;2.40;;
11135;SDS011;5622;50.840;4.948;2023-07-31T09:24:29;7.93;;;3.37;;
11135;SDS011;5622;50.840;4.948;2023-07-31T09:26:58;2.83;;;2.53;;
11135;SDS011;5622;50.840;4.948;2023-07-31T09:29:27;3.20;;;2.37;;
11135;SDS011;5622;50.840;4.948;2023-07-31T09:31:55;3.63;;;2.53;;
11135;SDS011;5622;50.840;4.948;2023-07-31T09:34:28;5.10;;;2.70;;
11135;SDS011;5622;50.840;4.948;2023-07-31T09:36:58;2.83;;;2.20;;
11135;SDS011;5622;50.840;4.948;2023-07-31T09:39:30;5.07;;;2.23;;
11135;SDS011;5622;50.840;4.948;2023-07-31T09:41:57;2.87;;;2.23;;
11135;SDS011;5622;50.840;4.948;2023-07-31T09:44:37;4.23;;;2.83;;
11135;SDS011;5622;50.840;4.948;2023-07-31T09:47:05;4.07;;;3.03;;
11135;SDS011;5622;50.840;4.948;2023-07-31T09:49:33;4.67;;;3.07;;
11135;SDS011;5622;50.840;4.948;2023-07-31T09:52:00;5.27;;;3.10;;
11135;SDS011;5622;50.840;4.948;2023-07-31T09:54:27;3.73;;;2.80;;
11135;SDS011;5622;50.840;4.948;2023-07-31T09:56:55;3.97;;;3.20;;
11135;SDS011;5622;50.840;4.948;2023-07-31T09:59:24;3.90;;;3.20;;
11135;SDS011;5622;50.840;4.948;2023-07-31T10:01:52;6.27;;;3.60;;
11135;SDS011;5622;50.840;4.948;2023-07-31T10:04:21;7.63;;;3.53;;
11135;SDS011;5622;50.840;4.948;2023-07-31T10:06:53;4.70;;;3.67;;
11135;SDS011;5622;50.840;4.948;2023-07-31T10:09:21;6.07;;;4.00;;
11135;SDS011;5622;50.840;4.948;2023-07-31T10:11:53;5.80;;;3.33;;
11135;SDS011;5622;50.840;4.948;2023-07-31T10:14:26;7.07;;;4.00;;
11135;SDS011;5622;50.840;4.948;2023-07-31T10:16:54;9.00;;;4.17;;
11135;SDS011;5622;50.840;4.948;2023-07-31T10:19:22;8.73;;;4.23;;
11135;SDS011;5622;50.840;4.948;2023-07-31T10:21:49;6.07;;;4.13;;
11135;SDS011;5622;50.840;4.948;2023-07-31T10:24:17;6.77;;;4.40;;
11135;SDS011;5622;50.840;4.948;2023-07-31T10:26:45;5.80;;;3.87;;
11135;SDS011;5622;50.840;4.948;2023-07-31T10:29:16;7.23;;;4.50;;
11135;SDS011;5622;50.840;4.948;2023-07-31T10:31:45;9.63;;;5.17;;
11135;SDS011;5622;50.840;4.948;2023-07-31T10:34:14;7.57;;;4.97;;
11135;SDS011;5622;50.840;4.948;2023-07-31T10:36:41;7.67;;;5.00;;
11135;SDS011;5622;50.840;4.948;2023-07-31T10:39:32;8.40;;;4.50;;
11135;SDS011;5622;50.840;4.948;2023-07-31T10:42:09;8.67;;;4.73;;
11135;SDS011;5622;50.840;4.948;2023-07-31T10:44:38;9.20;;;4.83;;
11135;SDS011;5622;50.840;4.948;2023-07-31T10:47:09;7.17;;;3.90;;
11135;SDS011;5622;50.840;4.948;2023-07-31T10:49:40;7.07;;;4.20;;
11135;SDS011;5622;50.840;4.948;2023-07-31T10:52:10;8.03;;;4.60;;
11135;SDS011;5622;50.840;4.948;2023-07-31T10:54:39;8.13;;;4.20;;
11135;SDS011;5622;50.840;4.948;2023-07-31T10:57:18;8.33;;;4.33;;
11135;SDS011;5622;50.840;4.948;2023-07-31T10:59:48;6.40;;;4.23;;
11135;SDS011;5622;50.840;4.948;2023-07-31T11:02:25;7.23;;;4.33;;
11135;SDS011;5622;50.840;4.948;2023-07-31T11:05:07;8.43;;;4.77;;
11135;SDS011;5622;50.840;4.948;2023-07-31T11:07:47;7.83;;;4.53;;
11135;SDS011;5622;50.840;4.948;2023-07-31T11:10:18;11.90;;;4.83;;
11135;SDS011;5622;50.840;4.948;2023-07-31T11:12:45;7.10;;;4.53;;
11135;SDS011;5622;50.840;4.948;2023-07-31T11:15:14;9.43;;;5.07;;
11135;SDS011;5622;50.840;4.948;2023-07-31T11:17:41;7.77;;;5.00;;
11135;SDS011;5622;50.840;4.948;2023-07-31T11:20:08;9.33;;;4.47;;
11135;SDS011;5622;50.840;4.948;2023-07-31T11:22:36;7.87;;;4.53;;
11135;SDS011;5622;50.840;4.948;2023-07-31T11:25:03;12.03;;;5.60;;
11135;SDS011;5622;50.840;4.948;2023-07-31T11:27:31;11.97;;;5.37;;
11135;SDS011;5622;50.840;4.948;2023-07-31T11:30:06;8.43;;;5.10;;
11135;SDS011;5622;50.840;4.948;2023-07-31T11:32:35;7.50;;;4.93;;
11135;SDS011;5622;50.840;4.948;2023-07-31T11:35:03;8.00;;;4.87;;
11135;SDS011;5622;50.840;4.948;2023-07-31T11:37:39;7.57;;;4.30;;
11135;SDS011;5622;50.840;4.948;2023-07-31T11:40:07;9.10;;;5.00;;
11135;SDS011;5622;50.840;4.948;2023-07-31T11:42:35;9.33;;;4.80;;
11135;SDS011;5622;50.840;4.948;2023-07-31T11:45:03;8.10;;;4.37;;
11135;SDS011;5622;50.840;4.948;2023-07-31T11:47:30;7.67;;;4.37;;
11135;SDS011;5622;50.840;4.948;2023-07-31T11:50:02;7.90;;;5.00;;
11135;SDS011;5622;50.840;4.948;2023-07-31T11:52:31;8.13;;;4.33;;
11135;SDS011;5622;50.840;4.948;2023-07-31T11:55:03;8.50;;;5.47;;
11135;SDS011;5622;50.840;4.948;2023-07-31T11:57:32;7.67;;;4.80;;
11135;SDS011;5622;50.840;4.948;2023-07-31T11:59:59;8.13;;;4.53;;
11135;SDS011;5622;50.840;4.948;2023-07-31T12:02:27;8.83;;;4.10;;
11135;SDS011;5622;50.840;4.948;2023-07-31T12:04:55;9.40;;;4.63;;
11135;SDS011;5622;50.840;4.948;2023-07-31T12:07:23;10.93;;;4.93;;
11135;SDS011;5622;50.840;4.948;2023-07-31T12:09:51;6.87;;;4.60;;
11135;SDS011;5622;50.840;4.948;2023-07-31T12:12:19;9.37;;;5.07;;
11135;SDS011;5622;50.840;4.948;2023-07-31T12:14:47;8.07;;;4.70;;
11135;SDS011;5622;50.840;4.948;2023-07-31T12:17:16;7.13;;;4.30;;
11135;SDS011;5622;50.840;4.948;2023-07-31T12:19:45;10.10;;;4.40;;
11135;SDS011;5622;50.840;4.948;2023-07-31T12:22:12;10.47;;;4.00;;
11135;SDS011;5622;50.840;4.948;2023-07-31T12:24:41;8.73;;;4.33;;
11135;SDS011;5622;50.840;4.948;2023-07-31T12:27:10;7.93;;;4.23;;
11135;SDS011;5622;50.840;4.948;2023-07-31T12:29:38;5.53;;;4.17;;
11135;SDS011;5622;50.840;4.948;2023-07-31T12:32:18;11.20;;;4.97;;
11135;SDS011;5622;50.840;4.948;2023-07-31T12:34:49;9.23;;;5.10;;
11135;SDS011;5622;50.840;4.948;2023-07-31T12:37:16;9.17;;;4.67;;
11135;SDS011;5622;50.840;4.948;2023-07-31T12:39:44;7.60;;;4.50;;
11135;SDS011;5622;50.840;4.948;2023-07-31T12:42:11;10.07;;;4.77;;
11135;SDS011;5622;50.840;4.948;2023-07-31T12:44:38;7.03;;;4.73;;
11135;SDS011;5622;50.840;4.948;2023-07-31T12:47:06;9.23;;;4.80;;
11135;SDS011;5622;50.840;4.948;2023-07-31T12:49:33;7.73;;;4.57;;
11135;SDS011;5622;50.840;4.948;2023-07-31T12:52:00;7.87;;;4.90;;
11135;SDS011;5622;50.840;4.948;2023-07-31T12:54:27;9.93;;;5.10;;
11135;SDS011;5622;50.840;4.948;2023-07-31T12:56:55;6.87;;;4.70;;
11135;SDS011;5622;50.840;4.948;2023-07-31T12:59:22;11.37;;;4.90;;
11135;SDS011;5622;50.840;4.948;2023-07-31T13:01:49;10.17;;;4.67;;
11135;SDS011;5622;50.840;4.948;2023-07-31T13:04:16;7.23;;;4.53;;
11135;SDS011;5622;50.840;4.948;2023-07-31T13:06:43;7.23;;;4.60;;
11135;SDS011;5622;50.840;4.948;2023-07-31T13:09:10;7.50;;;4.87;;
11135;SDS011;5622;50.840;4.948;2023-07-31T13:11:37;9.97;;;4.63;;
11135;SDS011;5622;50.840;4.948;2023-07-31T13:14:06;6.13;;;4.60;;
11135;SDS011;5622;50.840;4.948;2023-07-31T13:16:33;8.50;;;4.70;;
11135;SDS011;5622;50.840;4.948;2023-07-31T13:19:00;7.43;;;4.80;;
11135;SDS011;5622;50.840;4.948;2023-07-31T13:21:27;7.87;;;4.97;;
11135;SDS011;5622;50.840;4.948;2023-07-31T13:23:54;8.63;;;5.10;;
11135;SDS011;5622;50.840;4.948;2023-07-31T13:26:24;8.63;;;4.80;;
11135;SDS011;5622;50.840;4.948;2023-07-31T13:28:51;7.30;;;4.77;;
11135;SDS011;5622;50.840;4.948;2023-07-31T13:31:19;8.17;;;5.37;;
11135;SDS011;5622;50.840;4.948;2023-07-31T13:33:47;7.10;;;4.97;;
11135;SDS011;5622;50.840;4.948;2023-07-31T13:36:14;8.27;;;4.70;;
11135;SDS011;5622;50.840;4.948;2023-07-31T13:38:41;9.23;;;4.70;;
11135;SDS011;5622;50.840;4.948;2023-07-31T13:41:08;8.27;;;5.07;;
11135;SDS011;5622;50.840;4.948;2023-07-31T13:43:35;7.50;;;4.43;;
11135;SDS011;5622;50.840;4.948;2023-07-31T13:46:02;7.70;;;4.50;;
11135;SDS011;5622;50.840;4.948;2023-07-31T13:48:34;6.23;;;4.00;;
11135;SDS011;5622;50.840;4.948;2023-07-31T13:51:01;6.53;;;4.10;;
11135;SDS011;5622;50.840;4.948;2023-07-31T13:53:28;8.50;;;3.87;;
11135;SDS011;5622;50.840;4.948;2023-07-31T13:55:55;5.23;;;3.43;;
11135;SDS011;5622;50.840;4.948;2023-07-31T13:58:22;5.77;;;3.47;;
11135;SDS011;5622;50.840;4.948;2023-07-31T14:00:50;6.13;;;3.33;;
11135;SDS011;5622;50.840;4.948;2023-07-31T14:03:17;6.90;;;3.37;;
11135;SDS011;5622;50.840;4.948;2023-07-31T14:05:45;5.80;;;3.40;;
11135;SDS011;5622;50.840;4.948;2023-07-31T14:08:12;6.83;;;3.50;;
11135;SDS011;5622;50.840;4.948;2023-07-31T14:10:39;5.47;;;3.20;;
11135;SDS011;5622;50.840;4.948;2023-07-31T14:13:06;4.37;;;2.80;;
11135;SDS011;5622;50.840;4.948;2023-07-31T14:15:33;4.60;;;3.30;;
11135;SDS011;5622;50.840;4.948;2023-07-31T14:18:01;4.17;;;3.10;;
11135;SDS011;5622;50.840;4.948;2023-07-31T14:20:28;4.70;;;3.00;;
11135;SDS011;5622;50.840;4.948;2023-07-31T14:22:57;4.93;;;2.90;;
11135;SDS011;5622;50.840;4.948;2023-07-31T14:25:25;3.17;;;2.23;;
11135;SDS011;5622;50.840;4.948;2023-07-31T14:27:52;4.77;;;2.87;;
11135;SDS011;5622;50.840;4.948;2023-07-31T14:30:19;2.90;;;2.50;;
11135;SDS011;5622;50.840;4.948;2023-07-31T14:32:46;5.43;;;2.60;;
11135;SDS011;5622;50.840;4.948;2023-07-31T14:35:13;4.47;;;2.80;;
11135;SDS011;5622;50.840;4.948;2023-07-31T14:37:42;4.67;;;2.73;;
11135;SDS011;5622;50.840;4.948;2023-07-31T14:40:12;6.17;;;3.13;;
11135;SDS011;5622;50.840;4.948;2023-07-31T14:42:39;4.73;;;2.90;;
11135;SDS011;5622;50.840;4.948;2023-07-31T14:45:07;6.83;;;2.80;;
11135;SDS011;5622;50.840;4.948;2023-07-31T14:47:35;4.73;;;3.00;;
11135;SDS011;5622;50.840;4.948;2023-07-31T14:50:02;4.57;;;2.70;;
11135;SDS011;5622;50.840;4.948;2023-07-31T14:52:30;4.57;;;2.70;;
11135;SDS011;5622;50.840;4.948;2023-07-31T14:54:57;3.27;;;2.83;;
11135;SDS011;5622;50.840;4.948;2023-07-31T14:57:25;5.60;;;2.70;;
11135;SDS011;5622;50.840;4.948;2023-07-31T14:59:52;4.80;;;2.87;;
11135;SDS011;5622;50.840;4.948;2023-07-31T15:02:19;3.90;;;2.70;;
11135;SDS011;5622;50.840;4.948;2023-07-31T15:04:47;5.40;;;2.70;;
11135;SDS011;5622;50.840;4.948;2023-07-31T15:07:14;3.43;;;2.83;;